createdAt,value
2019-03-20T00:00:20.427Z,29.92
2019-03-20T00:02:48.977Z,30.43
2019-03-20T00:05:17.103Z,31.77
2019-03-20T00:07:45.143Z,31.33
2019-03-20T00:10:13.351Z,31.80
2019-03-20T00:12:41.386Z,32.25
2019-03-20T00:15:10.441Z,30.12
2019-03-20T00:17:38.358Z,30.27
2019-03-20T00:20:07.489Z,32.05
2019-03-20T00:22:35.522Z,29.10
2019-03-20T00:25:03.789Z,28.77
2019-03-20T00:27:31.821Z,29.77
2019-03-20T00:30:00.514Z,29.23
2019-03-20T00:32:28.568Z,29.45
2019-03-20T00:35:00.912Z,29.07
2019-03-20T00:37:26.397Z,27.93
2019-03-20T00:39:54.511Z,27.20
2019-03-20T00:42:22.544Z,28.27
2019-03-20T00:44:50.727Z,24.95
2019-03-20T00:47:19.260Z,27.10
2019-03-20T00:49:47.278Z,25.55
2019-03-20T00:52:15.233Z,25.52
2019-03-20T00:54:43.399Z,24.15
2019-03-20T00:57:11.427Z,24.85
2019-03-20T00:59:39.433Z,23.85
2019-03-20T01:02:07.482Z,24.27
2019-03-20T01:04:35.707Z,24.75
2019-03-20T01:07:03.734Z,24.47
2019-03-20T01:09:31.824Z,24.43
2019-03-20T01:11:59.920Z,24.60
2019-03-20T01:14:27.937Z,24.00
2019-03-20T01:16:55.782Z,24.25
2019-03-20T01:19:23.775Z,24.85
2019-03-20T01:21:52.012Z,24.85
2019-03-20T01:24:19.857Z,25.37
2019-03-20T01:26:47.737Z,25.55
2019-03-20T01:29:15.961Z,25.82
2019-03-20T01:31:44.041Z,25.23
2019-03-20T01:34:12.041Z,25.80
2019-03-20T01:36:40.042Z,25.62
2019-03-20T01:39:08.886Z,25.55
2019-03-20T01:41:38.290Z,24.65
2019-03-20T01:44:06.551Z,24.98
2019-03-20T01:46:34.719Z,24.70
2019-03-20T01:49:02.663Z,25.17
2019-03-20T01:51:30.990Z,25.02
2019-03-20T01:53:59.005Z,25.08
2019-03-20T01:56:26.889Z,23.67
2019-03-20T01:58:55.086Z,25.85
2019-03-20T02:01:23.428Z,26.15
2019-03-20T02:03:51.576Z,25.30
2019-03-20T02:06:20.422Z,26.25
2019-03-20T02:08:49.164Z,24.18
2019-03-20T02:11:17.270Z,25.02
2019-03-20T02:13:45.290Z,24.45
2019-03-20T02:16:13.161Z,23.60
2019-03-20T02:18:41.082Z,25.40
2019-03-20T02:21:09.261Z,23.50
2019-03-20T02:23:37.212Z,25.05
2019-03-20T02:26:05.339Z,25.17
2019-03-20T02:28:33.346Z,26.70
2019-03-20T02:31:01.995Z,24.85
2019-03-20T02:33:31.204Z,25.55
2019-03-20T02:35:59.287Z,26.23
2019-03-20T02:38:27.098Z,25.65
2019-03-20T02:40:55.080Z,25.32
2019-03-20T02:43:23.493Z,23.50
2019-03-20T02:45:51.546Z,26.07
2019-03-20T02:48:19.518Z,25.05
2019-03-20T02:50:47.598Z,25.85
2019-03-20T02:53:15.660Z,25.97
2019-03-20T02:55:44.642Z,24.90
2019-03-20T02:58:12.600Z,25.25
2019-03-20T03:00:40.705Z,24.57
2019-03-20T03:03:08.756Z,24.95
2019-03-20T03:05:36.836Z,24.87
2019-03-20T03:08:05.038Z,25.50
2019-03-20T03:10:32.963Z,24.65
2019-03-20T03:13:00.886Z,24.45
2019-03-20T03:15:29.001Z,23.62
2019-03-20T03:17:57.128Z,24.43
2019-03-20T03:20:25.200Z,23.42
2019-03-20T03:22:53.237Z,24.07
2019-03-20T03:25:21.282Z,23.52
2019-03-20T03:27:49.484Z,24.20
2019-03-20T03:32:51.795Z,24.33
2019-03-20T03:35:20.435Z,24.60
2019-03-20T03:37:49.621Z,24.70
2019-03-20T03:40:17.720Z,24.02
2019-03-20T03:42:46.671Z,23.52
2019-03-20T03:45:14.804Z,24.87
2019-03-20T03:47:42.807Z,25.25
2019-03-20T03:50:11.294Z,24.45
2019-03-20T03:52:39.520Z,22.93
2019-03-20T03:55:07.674Z,21.62
2019-03-20T03:57:36.094Z,20.75
2019-03-20T04:00:05.108Z,23.05
2019-03-20T04:02:33.218Z,21.97
2019-03-20T04:05:01.268Z,22.45
2019-03-20T04:07:29.358Z,22.22
2019-03-20T04:09:57.409Z,21.37
2019-03-20T04:12:25.934Z,23.02
2019-03-20T04:14:53.997Z,21.85
2019-03-20T04:17:26.657Z,21.68
2019-03-20T04:19:54.581Z,21.00
2019-03-20T04:22:22.683Z,21.75
2019-03-20T04:24:50.766Z,22.95
2019-03-20T04:27:18.878Z,21.27
2019-03-20T04:29:46.856Z,22.02
2019-03-20T04:32:14.972Z,20.35
2019-03-20T04:34:43.079Z,20.52
2019-03-20T04:37:11.166Z,21.12
2019-03-20T04:39:40.249Z,20.00
2019-03-20T04:42:08.266Z,21.62
2019-03-20T04:44:36.501Z,21.50
2019-03-20T04:47:04.675Z,20.40
2019-03-20T04:49:32.728Z,20.37
2019-03-20T04:52:01.303Z,19.95
2019-03-20T04:54:29.275Z,21.45
2019-03-20T04:56:57.873Z,20.55
2019-03-20T04:59:25.941Z,20.05
2019-03-20T05:01:54.068Z,20.27
2019-03-20T05:04:21.924Z,20.82
2019-03-20T05:06:58.314Z,21.40
2019-03-20T05:09:20.014Z,20.90
2019-03-20T05:11:47.935Z,20.00
2019-03-20T05:14:16.046Z,21.50
2019-03-20T05:16:44.082Z,21.35
2019-03-20T05:19:12.144Z,20.20
2019-03-20T05:21:40.180Z,20.10
2019-03-20T05:24:08.297Z,21.45
2019-03-20T05:26:36.232Z,21.02
2019-03-20T05:29:04.357Z,20.17
2019-03-20T05:31:32.360Z,20.95
2019-03-20T05:34:00.577Z,22.10
2019-03-20T05:36:28.648Z,21.95
2019-03-20T05:38:56.866Z,22.02
2019-03-20T05:41:24.864Z,22.75
2019-03-20T05:43:52.854Z,23.35
2019-03-20T05:46:20.878Z,22.73
2019-03-20T05:48:49.102Z,22.87
2019-03-20T05:51:16.974Z,21.42
2019-03-20T05:53:45.014Z,21.57
2019-03-20T05:56:13.049Z,22.22
2019-03-20T05:58:41.068Z,22.73
2019-03-20T06:01:09.094Z,21.20
2019-03-20T06:03:37.131Z,22.48
2019-03-20T06:06:05.098Z,21.87
2019-03-20T06:08:33.502Z,21.17
2019-03-20T06:11:01.667Z,20.55
2019-03-20T06:13:29.773Z,19.35
2019-03-20T06:15:59.869Z,19.40
2019-03-20T06:18:27.765Z,19.27
2019-03-20T06:20:55.812Z,19.60
2019-03-20T06:23:23.902Z,18.98
2019-03-20T06:25:51.944Z,20.00
2019-03-20T06:28:20.065Z,19.37
2019-03-20T06:30:48.124Z,20.35
2019-03-20T06:33:16.195Z,21.17
2019-03-20T06:35:44.068Z,19.23
2019-03-20T06:38:12.211Z,18.65
2019-03-20T06:40:40.289Z,19.98
2019-03-20T06:43:08.282Z,18.92
2019-03-20T06:45:36.299Z,19.45
2019-03-20T06:48:04.467Z,17.67
2019-03-20T06:50:32.507Z,19.95
2019-03-20T06:53:01.385Z,19.20
2019-03-20T06:55:30.301Z,17.82
2019-03-20T06:57:58.231Z,18.92
2019-03-20T07:00:49.253Z,17.75
2019-03-20T07:03:41.579Z,16.70
2019-03-20T07:06:33.040Z,14.40
2019-03-20T07:09:31.875Z,13.70
2019-03-20T07:11:59.823Z,13.18
2019-03-20T07:14:27.803Z,12.93
2019-03-20T07:16:55.748Z,13.03
2019-03-20T07:19:24.450Z,12.50
2019-03-20T07:21:52.529Z,12.78
2019-03-20T07:24:20.813Z,9.80
2019-03-20T07:26:48.747Z,10.15
2019-03-20T07:29:16.849Z,8.65
2019-03-20T07:31:44.899Z,8.48
2019-03-20T07:34:13.087Z,8.25
2019-03-20T07:36:41.225Z,9.08
2019-03-20T07:39:09.758Z,7.83
2019-03-20T07:41:37.794Z,8.03
2019-03-20T07:44:05.901Z,7.37
2019-03-20T07:46:34.310Z,7.10
2019-03-20T07:49:02.434Z,7.60
2019-03-20T07:51:30.409Z,7.50
2019-03-20T07:53:58.562Z,7.40
2019-03-20T07:56:26.657Z,8.93
2019-03-20T07:58:54.859Z,6.72
2019-03-20T08:01:22.952Z,7.62
2019-03-20T08:03:51.000Z,7.28
2019-03-20T08:06:19.023Z,7.00
2019-03-20T08:08:47.224Z,156.67
2019-03-20T08:11:18.483Z,69.40
2019-03-20T08:13:46.500Z,166.40
2019-03-20T08:16:15.195Z,111.50
2019-03-20T08:18:43.260Z,123.35
2019-03-20T08:21:11.281Z,175.30
2019-03-20T08:23:39.333Z,27.52
2019-03-20T08:26:07.584Z,7.10
2019-03-20T08:28:36.641Z,6.72
2019-03-20T08:31:05.236Z,6.22
2019-03-20T08:33:33.424Z,7.05
2019-03-20T08:36:03.566Z,5.10
2019-03-20T08:38:32.163Z,5.92
2019-03-20T08:41:00.295Z,5.62
2019-03-20T08:43:30.762Z,5.00
2019-03-20T08:46:01.086Z,5.67
2019-03-20T08:48:29.046Z,15.38
2019-03-20T08:50:57.081Z,5.72
2019-03-20T08:53:25.350Z,5.65
2019-03-20T08:55:53.566Z,5.90
2019-03-20T08:58:21.621Z,5.62
2019-03-20T09:00:49.837Z,5.87
2019-03-20T09:03:18.238Z,6.62
2019-03-20T09:05:46.595Z,6.40
2019-03-20T09:08:14.626Z,5.70
2019-03-20T09:10:42.784Z,6.00
2019-03-20T09:13:10.825Z,5.22
2019-03-20T09:15:39.061Z,4.90
2019-03-20T09:18:07.375Z,5.87
2019-03-20T09:20:35.577Z,4.97
2019-03-20T09:23:03.862Z,4.90
2019-03-20T09:25:32.895Z,5.60
2019-03-20T09:28:00.933Z,4.90
2019-03-20T09:30:28.945Z,3.57
2019-03-20T09:32:57.647Z,4.10
2019-03-20T09:35:25.861Z,3.93
2019-03-20T09:37:53.796Z,4.63
2019-03-20T09:40:23.627Z,4.50
2019-03-20T09:42:53.893Z,3.77
2019-03-20T09:45:23.025Z,4.03
2019-03-20T09:47:51.766Z,5.10
2019-03-20T09:50:20.134Z,4.83
2019-03-20T09:52:50.077Z,3.93
2019-03-20T09:55:18.668Z,4.00
2019-03-20T09:57:46.743Z,4.00
2019-03-20T10:00:22.154Z,4.07
2019-03-20T10:02:50.264Z,4.00
2019-03-20T10:05:18.419Z,4.93
2019-03-20T10:07:46.551Z,3.90
2019-03-20T10:10:19.173Z,4.07
2019-03-20T10:12:47.270Z,4.37
2019-03-20T10:15:15.834Z,4.00
2019-03-20T10:17:43.981Z,4.30
2019-03-20T10:20:13.721Z,3.43
2019-03-20T10:22:41.876Z,2.97
2019-03-20T10:25:09.919Z,3.00
2019-03-20T10:27:38.053Z,3.57
2019-03-20T10:30:08.662Z,2.70
2019-03-20T10:32:36.787Z,2.20
2019-03-20T10:35:06.053Z,2.27
2019-03-20T10:37:34.180Z,2.20
2019-03-20T10:40:02.216Z,2.50
2019-03-20T10:42:30.325Z,2.23
2019-03-20T10:44:58.371Z,1.80
2019-03-20T10:47:26.526Z,2.57
2019-03-20T10:49:54.557Z,2.33
2019-03-20T10:52:22.460Z,2.73
2019-03-20T10:54:50.368Z,2.47
2019-03-20T10:57:18.460Z,2.53
2019-03-20T10:59:46.523Z,2.80
2019-03-20T11:02:14.632Z,2.80
2019-03-20T11:04:42.604Z,1.60
2019-03-20T11:07:10.683Z,1.67
2019-03-20T11:09:38.744Z,1.90
2019-03-20T11:12:06.768Z,2.10
2019-03-20T11:14:34.798Z,2.33
2019-03-20T11:17:02.942Z,2.57
2019-03-20T11:19:30.917Z,2.33
2019-03-20T11:21:59.012Z,2.27
2019-03-20T11:24:27.085Z,2.30
2019-03-20T11:26:55.102Z,2.27
2019-03-20T11:29:23.217Z,2.10
2019-03-20T11:31:51.354Z,2.50
2019-03-20T11:34:19.449Z,2.20
2019-03-20T11:36:47.659Z,2.67
2019-03-20T11:39:16.399Z,2.60
2019-03-20T11:41:44.474Z,3.17
2019-03-20T11:44:12.483Z,2.40
2019-03-20T11:46:40.578Z,2.77
2019-03-20T11:49:08.552Z,2.33
2019-03-20T11:51:36.573Z,1.73
2019-03-20T11:54:04.723Z,2.50
2019-03-20T11:56:32.865Z,2.30
2019-03-20T11:59:00.912Z,2.23
2019-03-20T12:01:28.947Z,2.70
2019-03-20T12:03:56.967Z,2.60
2019-03-20T12:06:24.849Z,2.27
2019-03-20T12:08:52.941Z,3.00
2019-03-20T12:11:21.442Z,3.20
2019-03-20T12:13:49.803Z,2.53
2019-03-20T12:16:17.652Z,2.70
2019-03-20T12:18:45.824Z,1.87
2019-03-20T12:21:13.877Z,1.70
2019-03-20T12:23:41.881Z,1.80
2019-03-20T12:26:09.934Z,1.73
2019-03-20T12:28:37.953Z,2.27
2019-03-20T12:31:07.818Z,2.87
2019-03-20T12:33:35.903Z,2.43
2019-03-20T12:36:04.067Z,2.60
2019-03-20T12:38:32.229Z,2.53
2019-03-20T12:41:00.772Z,2.93
2019-03-20T12:43:28.856Z,2.70
2019-03-20T12:45:56.915Z,2.40
2019-03-20T12:48:26.314Z,2.57
2019-03-20T12:50:54.332Z,2.50
2019-03-20T12:53:23.774Z,2.97
2019-03-20T12:55:51.802Z,2.57
2019-03-20T12:58:19.794Z,2.77
2019-03-20T13:03:15.371Z,2.57
2019-03-20T13:05:43.565Z,2.63
2019-03-20T13:08:21.288Z,2.90
2019-03-20T13:10:49.405Z,2.57
2019-03-20T13:13:19.288Z,3.10
2019-03-20T13:15:47.971Z,2.70
2019-03-20T13:18:16.418Z,2.83
2019-03-20T13:20:44.633Z,2.93
2019-03-20T13:23:14.308Z,3.43
2019-03-20T13:25:42.872Z,3.10
2019-03-20T13:28:11.162Z,3.13
2019-03-20T13:30:42.618Z,2.77
2019-03-20T13:33:10.757Z,3.03
2019-03-20T13:35:38.912Z,2.80
2019-03-20T13:38:07.930Z,2.37
2019-03-20T13:40:36.010Z,2.80
2019-03-20T13:43:04.277Z,2.40
2019-03-20T13:45:32.374Z,2.80
2019-03-20T13:48:00.435Z,2.20
2019-03-20T13:50:28.477Z,2.70
2019-03-20T13:52:56.577Z,2.47
2019-03-20T13:55:24.618Z,3.20
2019-03-20T13:58:23.225Z,2.43
2019-03-20T14:00:51.877Z,2.67
2019-03-20T14:03:20.589Z,2.70
2019-03-20T14:05:48.543Z,3.07
2019-03-20T14:08:16.650Z,2.43
2019-03-20T14:10:50.311Z,2.60
2019-03-20T14:13:14.564Z,2.20
2019-03-20T14:15:43.433Z,2.80
2019-03-20T14:18:11.414Z,3.03
2019-03-20T14:20:40.157Z,2.80
2019-03-20T14:23:08.045Z,2.57
2019-03-20T14:25:36.027Z,2.43
2019-03-20T14:28:04.085Z,3.07
2019-03-20T14:30:32.240Z,2.67
2019-03-20T14:33:00.278Z,2.70
2019-03-20T14:35:28.492Z,2.80
2019-03-20T14:37:56.616Z,2.53
2019-03-20T14:40:35.418Z,2.40
2019-03-20T14:42:56.325Z,2.67
2019-03-20T14:45:24.419Z,2.70
2019-03-20T14:47:52.900Z,2.70
2019-03-20T14:50:22.827Z,2.37
2019-03-20T14:52:50.873Z,2.83
2019-03-20T14:55:19.128Z,2.63
2019-03-20T14:57:47.200Z,2.73
2019-03-20T15:00:19.931Z,2.70
2019-03-20T15:02:48.028Z,2.40
2019-03-20T15:05:16.260Z,2.53
2019-03-20T15:07:44.327Z,2.37
2019-03-20T15:10:14.646Z,2.47
2019-03-20T15:12:49.592Z,2.30
2019-03-20T15:15:47.304Z,2.13
2019-03-20T15:18:15.222Z,2.33
2019-03-20T15:20:43.329Z,2.10
2019-03-20T15:23:11.266Z,2.27
2019-03-20T15:25:39.375Z,2.50
2019-03-20T15:28:07.396Z,2.07
2019-03-20T15:30:35.518Z,2.53
2019-03-20T15:33:03.688Z,2.47
2019-03-20T15:35:31.696Z,2.30
2019-03-20T15:37:59.686Z,2.07
2019-03-20T15:40:27.753Z,2.43
2019-03-20T15:42:55.801Z,2.17
2019-03-20T15:45:23.958Z,2.20
2019-03-20T15:47:52.066Z,2.30
2019-03-20T15:50:20.352Z,1.80
2019-03-20T15:52:48.445Z,2.13
2019-03-20T15:55:19.417Z,2.27
2019-03-20T15:57:47.362Z,2.13
2019-03-20T16:00:16.967Z,2.50
2019-03-20T16:02:45.317Z,2.43
2019-03-20T16:05:13.445Z,2.17
2019-03-20T16:07:41.817Z,2.47
2019-03-20T16:10:12.772Z,2.60
2019-03-20T16:12:40.919Z,2.60
2019-03-20T16:15:13.166Z,2.03
2019-03-20T16:17:42.029Z,2.20
2019-03-20T16:20:10.362Z,2.67
2019-03-20T16:22:38.388Z,2.87
2019-03-20T16:25:06.809Z,2.80
2019-03-20T16:27:34.892Z,2.97
2019-03-20T16:30:04.371Z,5.13
2019-03-20T16:32:32.433Z,3.10
2019-03-20T16:35:01.263Z,18.37
2019-03-20T16:37:29.383Z,50.07
2019-03-20T16:39:57.407Z,13.73
2019-03-20T16:42:25.470Z,10.10
2019-03-20T16:44:53.566Z,4.07
2019-03-20T16:47:21.687Z,8.90
2019-03-20T16:49:49.773Z,28.03
2019-03-20T16:52:17.875Z,135.53
2019-03-20T16:54:45.982Z,24.27
2019-03-20T16:57:13.928Z,9.63
2019-03-20T16:59:42.001Z,6.10
2019-03-20T17:02:10.122Z,6.70
2019-03-20T17:04:38.110Z,9.07
2019-03-20T17:07:06.364Z,9.33
2019-03-20T17:09:34.395Z,7.50
2019-03-20T17:12:02.633Z,6.27
2019-03-20T17:14:30.691Z,5.30
2019-03-20T17:17:00.901Z,5.40
2019-03-20T17:19:28.835Z,5.13
2019-03-20T17:21:56.888Z,4.70
2019-03-20T17:24:24.839Z,4.70
2019-03-20T17:26:53.185Z,4.53
2019-03-20T17:29:21.222Z,4.20
2019-03-20T17:31:49.390Z,4.73
2019-03-20T17:34:17.479Z,6.20
2019-03-20T17:36:46.102Z,5.50
2019-03-20T17:39:14.173Z,4.97
2019-03-20T17:41:42.983Z,4.83
2019-03-20T17:44:11.042Z,6.10
2019-03-20T17:46:39.531Z,6.23
2019-03-20T17:49:07.654Z,5.80
2019-03-20T17:51:35.727Z,9.40
2019-03-20T17:54:03.947Z,29.73
2019-03-20T17:56:32.040Z,31.67
2019-03-20T17:59:00.379Z,27.77
2019-03-20T18:01:28.439Z,24.00
2019-03-20T18:03:56.422Z,14.03
2019-03-20T18:06:24.472Z,24.10
2019-03-20T18:08:52.545Z,25.20
2019-03-20T18:11:20.810Z,52.47
2019-03-20T18:13:48.975Z,58.07
2019-03-20T18:16:16.999Z,47.20
2019-03-20T18:18:48.117Z,75.70
2019-03-20T18:21:16.339Z,70.93
2019-03-20T18:23:45.292Z,47.30
2019-03-20T18:26:13.479Z,37.50
2019-03-20T18:28:41.612Z,26.33
2019-03-20T18:31:09.807Z,15.47
2019-03-20T18:33:37.642Z,14.00
2019-03-20T18:36:05.807Z,12.10
2019-03-20T18:38:33.868Z,12.63
2019-03-20T18:41:01.842Z,13.07
2019-03-20T18:43:30.592Z,11.73
2019-03-20T18:45:58.723Z,12.07
2019-03-20T18:48:29.848Z,12.10
2019-03-20T18:50:57.812Z,12.53
2019-03-20T18:53:26.041Z,15.50
2019-03-20T18:55:55.296Z,14.50
2019-03-20T18:58:23.340Z,14.40
2019-03-20T19:00:51.330Z,14.30
2019-03-20T19:03:20.612Z,27.87
2019-03-20T19:05:58.254Z,52.00
2019-03-20T19:08:26.496Z,22.33
2019-03-20T19:10:54.656Z,16.93
2019-03-20T19:13:24.478Z,12.40
2019-03-20T19:15:52.627Z,15.77
2019-03-20T19:18:20.917Z,12.03
2019-03-20T19:20:48.976Z,20.70
2019-03-20T19:23:17.106Z,21.20
2019-03-20T19:25:45.194Z,24.40
2019-03-20T19:28:13.309Z,27.50
2019-03-20T19:30:42.668Z,22.40
2019-03-20T19:33:10.762Z,19.43
2019-03-20T19:35:38.832Z,19.30
2019-03-20T19:38:07.096Z,19.87
2019-03-20T19:40:35.751Z,19.57
2019-03-20T19:43:05.569Z,19.67
2019-03-20T19:45:34.386Z,23.00
2019-03-20T19:48:02.657Z,22.07
2019-03-20T19:50:31.108Z,23.60
2019-03-20T19:52:59.307Z,24.30
2019-03-20T19:55:27.403Z,26.13
2019-03-20T19:57:55.609Z,25.73
2019-03-20T20:00:23.738Z,29.57
2019-03-20T20:02:52.106Z,29.57
2019-03-20T20:05:20.213Z,28.20
2019-03-20T20:07:48.358Z,26.37
2019-03-20T20:10:16.675Z,26.07
2019-03-20T20:12:45.728Z,25.43
2019-03-20T20:15:16.520Z,23.40
2019-03-20T20:17:46.884Z,25.17
2019-03-20T20:20:16.125Z,28.00
2019-03-20T20:22:46.536Z,25.30
2019-03-20T20:25:14.708Z,25.70
2019-03-20T20:27:43.469Z,26.37
2019-03-20T20:30:13.687Z,27.90
2019-03-20T20:32:44.210Z,28.87
2019-03-20T20:35:12.559Z,27.50
2019-03-20T20:37:40.652Z,26.87
2019-03-20T20:40:10.662Z,25.73
2019-03-20T20:42:42.968Z,26.50
2019-03-20T20:45:09.396Z,27.33
2019-03-20T20:47:38.169Z,27.37
2019-03-20T20:50:06.689Z,26.33
2019-03-20T20:52:35.047Z,26.40
2019-03-20T20:55:03.271Z,25.83
2019-03-20T20:57:31.261Z,27.13
2019-03-20T20:59:59.456Z,27.20
2019-03-20T21:02:27.339Z,26.07
2019-03-20T21:04:55.365Z,25.80
2019-03-20T21:07:23.315Z,28.20
2019-03-20T21:09:51.511Z,27.10
2019-03-20T21:12:19.530Z,29.63
2019-03-20T21:14:47.743Z,30.33
2019-03-20T21:17:22.380Z,47.07
2019-03-20T21:19:51.210Z,63.77
2019-03-20T21:23:19.049Z,45.73
2019-03-20T21:25:47.734Z,32.80
2019-03-20T21:28:57.456Z,40.03
2019-03-20T21:31:33.186Z,32.87
2019-03-20T21:34:58.998Z,31.60
2019-03-20T21:38:14.191Z,28.53
2019-03-20T21:41:23.706Z,26.87
2019-03-20T21:44:31.646Z,27.87
2019-03-20T21:47:35.287Z,28.20
2019-03-20T21:51:02.728Z,28.40
2019-03-20T21:53:46.786Z,27.53
2019-03-20T21:56:25.430Z,28.30
2019-03-20T21:59:02.280Z,28.17
2019-03-20T22:02:11.389Z,29.35
2019-03-20T22:04:39.882Z,28.83
2019-03-20T22:07:09.294Z,27.90
2019-03-20T22:10:34.049Z,29.00
2019-03-20T22:13:29.193Z,26.40
2019-03-20T22:16:33.115Z,27.15
2019-03-20T22:19:53.354Z,28.17
2019-03-20T22:22:58.434Z,26.67
2019-03-20T22:26:03.485Z,28.63
2019-03-20T22:29:03.526Z,27.67
2019-03-20T22:31:33.049Z,29.30
2019-03-20T22:34:37.172Z,30.30
2019-03-20T22:37:05.719Z,29.57
2019-03-20T22:40:18.655Z,30.80
2019-03-20T22:43:00.333Z,31.57
2019-03-20T22:46:08.331Z,30.53
2019-03-20T22:49:35.824Z,30.90
2019-03-20T22:52:36.167Z,31.07
2019-03-20T22:55:37.913Z,29.17
2019-03-20T22:58:44.032Z,29.47
2019-03-20T23:01:42.609Z,30.27
2019-03-20T23:04:15.072Z,29.87
2019-03-20T23:06:43.770Z,29.97
2019-03-20T23:09:12.409Z,30.20
2019-03-20T23:11:40.967Z,29.83
2019-03-20T23:14:10.439Z,30.47
2019-03-20T23:16:39.021Z,28.70
2019-03-20T23:19:07.631Z,28.90
2019-03-20T23:21:36.143Z,29.00
2019-03-20T23:24:04.792Z,29.77
2019-03-20T23:26:33.280Z,28.98
2019-03-20T23:29:04.670Z,28.77
2019-03-20T23:31:33.309Z,29.33
2019-03-20T23:34:01.860Z,28.47
2019-03-20T23:36:30.367Z,27.60
2019-03-20T23:38:58.925Z,28.87
2019-03-20T23:41:27.542Z,29.12
2019-03-20T23:43:58.227Z,28.70
2019-03-20T23:46:26.694Z,27.70
2019-03-20T23:49:01.653Z,27.65
2019-03-20T23:51:30.216Z,27.73
2019-03-20T23:53:58.809Z,28.73
2019-03-20T23:56:29.299Z,27.95
2019-03-20T23:58:57.992Z,25.82
